Information Last Ob Photographs Meteogram Network Table Neighbors Monthly Summaries Observation History Wind Roses Custom Wind Roses Data Calendar Satellite Cloud Product Download

01 September 2021 Observation History, [SMQ] SOMERVILLE (WAS SJB N52), timezone: America/New_York

Select Date: Time Order:

Show METARs   Show High Frequency MADIS

Previous DayNext Day
Time Wind
(mph)
Vis.
(mi.)
Sky Cond.
(100s ft)
Present Wx Temperature (ºF) Relative
Humidity
Pressure Snow
Depth
(in)
Precipitation (in.)
Air Dwpt Feels Like 6 hour altimeter
(in.)
sea level
(mb)
1 hr 3 hr 6 hr
Max.Min.
12:00 AMCalm8 OVC110
% 29.79
KSMQ 010400Z AUTO 00000KT 8SM OVC110 22/21 A2979 RMK T02200210 MADISHF
12:05 AMCalm8 OVC110
% 29.79
KSMQ 010405Z AUTO 00000KT 8SM OVC110 22/21 A2979 RMK T02200210 MADISHF
12:10 AMCalm7 OVC110
% 29.79
KSMQ 010410Z AUTO 00000KT 7SM OVC110 23/21 A2979 RMK T02300210 MADISHF
12:15 AMCalm7 OVC100
% 29.79
KSMQ 010415Z AUTO 00000KT 7SM OVC100 22/21 A2979 RMK T02200210 MADISHF
12:20 AMCalm8 OVC100
% 29.79
KSMQ 010420Z AUTO 00000KT 8SM OVC100 22/21 A2979 RMK T02200210 MADISHF
12:25 AMCalm8 OVC100
% 29.78
KSMQ 010425Z AUTO 00000KT 8SM OVC100 22/21 A2978 RMK T02200210 MADISHF
12:30 AMCalm8 OVC100
% 29.79
KSMQ 010430Z AUTO 00000KT 8SM OVC100 22/21 A2979 RMK T02200210 MADISHF
12:35 AMCalm8 OVC100
% 29.78
KSMQ 010435Z AUTO 00000KT 8SM OVC100 22/21 A2978 RMK T02200210 MADISHF
12:40 AMCalm8 OVC110
% 29.79
KSMQ 010440Z AUTO 00000KT 8SM OVC110 22/21 A2979 RMK T02200210 MADISHF
12:45 AMCalm8 OVC110
% 29.79
KSMQ 010445Z AUTO 00000KT 8SM OVC110 22/21 A2979 RMK T02200210 MADISHF
12:50 AMCalm7 OVC110
% 29.79
KSMQ 010450Z AUTO 00000KT 7SM OVC110 22/21 A2979 RMK T02200210 MADISHF
12:53 AMCalm7 OVC110
717071 96% 29.791008.50
KSMQ 010453Z AUTO 00000KT 7SM OVC110 22/21 A2979 RMK AO2 SLP085 T02170211 403000189
12:55 AMCalm7 OVC110
% 29.79
KSMQ 010455Z AUTO 00000KT 7SM OVC110 22/21 A2979 RMK T02200210 MADISHF
1:00 AMCalm7 OVC110
% 29.79
KSMQ 010500Z AUTO 00000KT 7SM OVC110 22/21 A2979 RMK T02200210 MADISHF
1:05 AMNW 57 OVC110
% 29.79
KSMQ 010505Z AUTO 31004KT 7SM OVC110 22/21 A2979 RMK T02200210 MADISHF
1:10 AMNW 28 OVC120
% 29.79
KSMQ 010510Z AUTO 32002KT 8SM OVC120 22/21 A2979 RMK T02200210 MADISHF
1:15 AMNW 28 OVC110
% 29.78
KSMQ 010515Z AUTO 32002KT 8SM OVC110 22/21 A2978 RMK T02200210 MADISHF
1:20 AMCalm8 OVC110
% 29.78
KSMQ 010520Z AUTO 00000KT 8SM OVC110 22/21 A2978 RMK T02200210 MADISHF
1:25 AMCalm8 OVC120
% 29.78
KSMQ 010525Z AUTO 00000KT 8SM OVC120 22/21 A2978 RMK T02200210 MADISHF
1:30 AMCalm8 OVC120
% 29.78
KSMQ 010530Z AUTO 00000KT 8SM OVC120 22/21 A2978 RMK T02200210 MADISHF
1:35 AMCalm8 OVC120
% 29.78
KSMQ 010535Z AUTO 00000KT 8SM OVC120 22/21 A2978 RMK T02200210 MADISHF
1:40 AMCalm8 OVC110
% 29.79
KSMQ 010540Z AUTO 00000KT 8SM OVC110 22/21 A2979 RMK T02200210 MADISHF
1:45 AMCalm8 OVC110
% 29.78
KSMQ 010545Z AUTO 00000KT 8SM OVC110 22/21 A2978 RMK T02200210 MADISHF
1:50 AMCalm8 OVC110
% 29.78
KSMQ 010550Z AUTO 00000KT 8SM OVC110 22/21 A2978 RMK T02200210 MADISHF
1:53 AMCalm8 OVC110
716971 73 70 93% 29.781008.30
KSMQ 010553Z AUTO 00000KT 8SM OVC110 22/21 A2978 RMK AO2 SLP083 T02170206 10228 20211 58002
1:55 AMCalm8 OVC110
% 29.78
KSMQ 010555Z AUTO 00000KT 8SM OVC110 22/21 A2978 RMK T02200210 MADISHF
2:00 AMCalm7 OVC110
% 29.78
KSMQ 010600Z AUTO 00000KT 7SM OVC110 22/21 A2978 RMK T02200210 MADISHF
2:05 AMCalm7 OVC110
% 29.78
KSMQ 010605Z AUTO 00000KT 7SM OVC110 22/21 A2978 RMK T02200210 MADISHF
2:10 AMCalm7 OVC110
% 29.78
KSMQ 010610Z AUTO 00000KT 7SM OVC110 21/21 A2978 RMK T02100210 MADISHF
2:15 AMCalm6 OVC110
BR % 29.78
KSMQ 010615Z AUTO 00000KT 6SM BR OVC110 21/21 A2978 RMK T02100210 MADISHF
2:20 AMCalm5 OVC110
BR % 29.78
KSMQ 010620Z AUTO 00000KT 5SM BR OVC110 21/21 A2978 RMK T02100210 MADISHF
2:25 AMCalm6 OVC120
BR % 29.78
KSMQ 010625Z AUTO 00000KT 6SM BR OVC120 21/21 A2978 RMK T02100210 MADISHF
2:30 AMCalm6 BKN120
BR % 29.78
KSMQ 010630Z AUTO 00000KT 6SM BR BKN120 21/21 A2978 RMK T02100210 MADISHF
2:35 AMCalm5 BKN110
BR % 29.78
KSMQ 010635Z AUTO 00000KT 5SM BR BKN110 21/21 A2978 RMK T02100210 MADISHF
2:40 AMCalm6 BKN110
BR % 29.78
KSMQ 010640Z AUTO 00000KT 6SM BR BKN110 21/21 A2978 RMK T02100210 MADISHF
2:45 AMCalm5 FEW065
BKN110
BR % 29.78
KSMQ 010645Z AUTO 00000KT 5SM BR FEW065 BKN110 21/21 A2978 RMK T02100210 MADISHF
2:50 AMCalm5 SCT065
BKN110
BR % 29.78
KSMQ 010650Z AUTO 00000KT 5SM BR SCT065 BKN110 21/21 A2978 RMK T02100210 MADISHF
2:53 AMCalm5 BKN065
BKN110
BR706970 97% 29.781008.40
KSMQ 010653Z AUTO 00000KT 5SM BR BKN065 BKN110 21/21 A2978 RMK AO2 SLP084 T02110206
2:55 AMCalm5 BKN065
BKN110
BR % 29.78
KSMQ 010655Z AUTO 00000KT 5SM BR BKN065 BKN110 21/21 A2978 RMK T02100210 MADISHF
3:00 AMCalm7 BKN065
BKN090
OVC100
% 29.78
KSMQ 010700Z AUTO 00000KT 7SM BKN065 BKN090 OVC100 21/21 A2978 RMK T02100210 MADISHF
3:05 AMCalm7 BKN065
OVC095
% 29.78
KSMQ 010705Z AUTO 00000KT 7SM BKN065 OVC095 22/21 A2978 RMK T02200210 MADISHF
3:10 AMCalm6 SCT065
OVC090
BR % 29.78
KSMQ 010710Z AUTO 00000KT 6SM BR SCT065 OVC090 21/21 A2978 RMK T02100210 MADISHF
3:15 AMCalm7 SCT065
OVC090
% 29.78
KSMQ 010715Z AUTO 00000KT 7SM SCT065 OVC090 22/21 A2978 RMK T02200210 MADISHF
3:20 AMCalm6 SCT065
OVC085
BR % 29.79
KSMQ 010720Z AUTO 00000KT 6SM BR SCT065 OVC085 21/21 A2979 RMK T02100210 MADISHF
3:25 AMWSW 26 FEW060
OVC085
BR % 29.8
KSMQ 010725Z AUTO 24002KT 6SM BR FEW060 OVC085 21/21 A2979 RMK T02100210 MADISHF
3:30 AMCalm2 FEW025
BKN080
OVC090
-RA BR % 29.80.05
KSMQ 010730Z AUTO 00000KT 2SM -RA BR FEW025 BKN080 OVC090 21/21 A2979 RMK P0005 T02100210 MADISHF
3:31 AMCalm1.75 FEW023
BKN070
OVC090
-RA BR707070 100% 29.80.07
KSMQ 010731Z AUTO 00000KT 1 3/4SM -RA BR FEW023 BKN070 OVC090 21/21 A2980 RMK AO2 RAB29 P0007 T02110211
3:35 AMW 21 SCT023
BKN060
OVC085
+RA BR % 29.810.12
KSMQ 010735Z AUTO 28002KT 1SM +RA BR SCT023 BKN060 OVC085 21/21 A2980 RMK P0011 T02100210 VRB03KT MADISHF
3:40 AMCalm1.25 FEW025
BKN055
OVC110
-RA BR % 29.790.12
KSMQ 010740Z AUTO 00000KT 1 1/2SM -RA BR FEW025 BKN055 OVC110 21/21 A2979 RMK P0011 T02100210 MADISHF
3:43 AMCalm3 FEW027
BKN070
OVC110
-RA BR706970 97% 29.790.12
KSMQ 010743Z AUTO 00000KT 3SM -RA BR FEW027 BKN070 OVC110 21/21 A2979 RMK AO2 RAB29 P0012 T02110206
3:45 AMCalm5 FEW027
BKN085
OVC110
-RA BR % 29.790.12
KSMQ 010745Z AUTO 00000KT 5SM -RA BR FEW027 BKN085 OVC110 21/21 A2979 RMK P0011 T02100210 MADISHF
3:50 AMN 56 FEW025
SCT055
OVC110
-RA BR % 29.790.12
KSMQ 010750Z AUTO 35004KT 6SM -RA BR FEW025 SCT055 OVC110 22/21 A2979 RMK P0011 T02200210 MADISHF
3:53 AMNNW 56 FEW025
SCT060
OVC110
-RA BR706970 97% 29.791008.70.13
KSMQ 010753Z AUTO 33004KT 6SM -RA BR FEW025 SCT060 OVC110 21/21 A2979 RMK AO2 RAB29 SLP087 P0013 T02110206
3:55 AMNW 66 FEW025
FEW049
OVC110
-RA BR % 29.79
KSMQ 010755Z AUTO 32005KT 6SM -RA BR FEW025 FEW049 OVC110 21/21 A2979 RMK T02100210 MADISHF
4:00 AMN 66 FEW025
BKN110
-RA BR % 29.78
KSMQ 010800Z AUTO 36005KT 6SM -RA BR FEW025 BKN110 21/21 A2978 RMK T02100210 MADISHF
4:05 AMN 57 BKN110
-RA % 29.78
KSMQ 010805Z AUTO 36004KT 7SM -RA BKN110 21/21 A2978 RMK T02100210 MADISHF
4:10 AMN 27 BKN110
% 29.78
KSMQ 010810Z AUTO 01002KT 7SM BKN110 21/21 A2978 RMK T02100210 MADISHF
4:15 AMCalm7 SCT100
BKN120
% 29.78
KSMQ 010815Z AUTO 00000KT 7SM SCT100 BKN120 21/21 A2978 RMK T02100210 MADISHF
4:20 AMCalm6 BKN110
BR % 29.78
KSMQ 010820Z AUTO 00000KT 6SM BR BKN110 21/21 A2978 RMK T02100210 MADISHF
4:25 AMN 26 BKN110
BR % 29.78
KSMQ 010825Z AUTO 01002KT 6SM BR BKN110 21/21 A2978 RMK T02100210 MADISHF
4:30 AMCalm5 BKN110
BR % 29.78
KSMQ 010830Z AUTO 00000KT 5SM BR BKN110 21/21 A2978 RMK T02100210 MADISHF
4:35 AMCalm4 BKN110
-RA BR % 29.78
KSMQ 010835Z AUTO 00000KT 4SM -RA BR BKN110 21/21 A2978 RMK T02100210 MADISHF
4:40 AMCalm4 BKN110
-RA BR % 29.79
KSMQ 010840Z AUTO 00000KT 4SM -RA BR BKN110 21/21 A2979 RMK T02100210 MADISHF
4:45 AMCalm4 BKN110
-RA BR % 29.79
KSMQ 010845Z AUTO 00000KT 4SM -RA BR BKN110 21/21 A2979 RMK T02100210 MADISHF
4:50 AMCalm3.5 BKN100
-RA BR % 29.79
KSMQ 010850Z AUTO 00000KT 3SM -RA BR BKN100 21/21 A2979 RMK T02100210 MADISHF
4:53 AMCalm3 BKN100
-RA BR696969 100% 29.791008.8T0.13
KSMQ 010853Z AUTO 00000KT 3SM -RA BR BKN100 21/21 A2979 RMK AO2 RAE07B31 SLP088 P0000 60013 T02060206 50003
4:55 AMCalm3 BKN100
-RA BR % 29.79
KSMQ 010855Z AUTO 00000KT 3SM -RA BR BKN100 21/21 A2979 RMK T02100210 MADISHF
5:00 AMCalm2.5 BKN100
-RA BR % 29.8
KSMQ 010900Z AUTO 00000KT 2 1/2SM -RA BR BKN100 21/21 A2979 RMK T02100210 MADISHF
5:04 AMCalm2 OVC100
-RA BR696969 100% 29.8T
KSMQ 010904Z AUTO 00000KT 2SM -RA BR OVC100 21/21 A2980 RMK AO2 P0000 T02060206
5:05 AMCalm2 OVC100
-RA BR % 29.8
KSMQ 010905Z AUTO 00000KT 2SM -RA BR OVC100 21/21 A2979 RMK T02100210 MADISHF
5:10 AMCalm2 FEW055
FEW070
OVC100
-RA BR % 29.80.01
KSMQ 010910Z AUTO 00000KT 2SM -RA BR FEW055 FEW070 OVC100 21/21 A2979 RMK P0000 T02100210 MADISHF
5:15 AMCalm2.5 FEW060
SCT070
OVC100
-RA BR % 29.790.01
KSMQ 010915Z AUTO 00000KT 2 1/2SM -RA BR FEW060 SCT070 OVC100 21/21 A2979 RMK P0000 T02100210 MADISHF
5:20 AMCalm2.5 FEW050
SCT065
OVC100
-RA BR % 29.790.01
KSMQ 010920Z AUTO 00000KT 2 1/2SM -RA BR FEW050 SCT065 OVC100 21/21 A2979 RMK P0000 T02100210 MADISHF
5:25 AMCalm2 FEW060
BKN110
-RA BR % 29.80.02
KSMQ 010925Z AUTO 00000KT 2SM -RA BR FEW060 BKN110 21/21 A2979 RMK P0001 T02100210 MADISHF
5:30 AMS 21.5 FEW042
SCT060
OVC110
-RA BR % 29.80.02
KSMQ 010930Z AUTO 18002KT 1 1/2SM -RA BR FEW042 SCT060 OVC110 21/21 A2979 RMK P0001 T02100210 MADISHF
5:32 AMSSW 31.5 SCT042
BKN090
OVC110
-RA BR696969 100% 29.80.02
KSMQ 010932Z AUTO 19003KT 1 1/2SM -RA BR SCT042 BKN090 OVC110 21/21 A2980 RMK AO2 P0002 T02060206
5:35 AMCalm1.75 SCT042
BKN065
OVC110
-RA BR % 29.80.02
KSMQ 010935Z AUTO 00000KT 2SM -RA BR SCT042 BKN065 OVC110 21/21 A2979 RMK P0001 T02100210 MADISHF
5:40 AMCalm2 BKN041
BKN055
OVC110
-RA BR % 29.80.03
KSMQ 010940Z AUTO 00000KT 2SM -RA BR BKN041 BKN055 OVC110 21/21 A2979 RMK P0002 T02100210 MADISHF
5:44 AMSW 52.5 FEW029
BKN041
OVC110
-RA BR696969 100% 29.810.03
KSMQ 010944Z AUTO 23004KT 2 1/2SM -RA BR FEW029 BKN041 OVC110 21/21 A2981 RMK AO2 P0003 T02060206
5:45 AMSW 22.5 FEW029
BKN041
OVC110
-RA BR % 29.810.03
KSMQ 010945Z AUTO 22002KT 2 1/2SM -RA BR FEW029 BKN041 OVC110 21/21 A2980 RMK P0002 T02100210 VRB03KT MADISHF
5:50 AMWNW 22.5 FEW029
BKN041
OVC110
RA BR % 29.810.05
KSMQ 010950Z AUTO 29002KT 2 1/2SM RA BR FEW029 BKN041 OVC110 21/21 A2980 RMK P0005 T02100210 VRB03KT MADISHF
5:53 AMCalm2 SCT031
BKN041
OVC080
RA BR696969 100% 29.791008.90.06
KSMQ 010953Z AUTO 00000KT 2SM RA BR SCT031 BKN041 OVC080 21/21 A2979 RMK AO2 SLP089 P0006 T02060206
5:55 AMENE 52.5 SCT031
BKN041
OVC085
RA BR % 29.79
KSMQ 010955Z AUTO 07004KT 2 1/2SM RA BR SCT031 BKN041 OVC085 21/21 A2979 RMK T02100210 MADISHF
6:00 AMCalm2.5 SCT031
BKN041
OVC080
-RA BR % 29.8
KSMQ 011000Z AUTO 00000KT 2 1/2SM -RA BR SCT031 BKN041 OVC080 21/21 A2979 RMK T02100210 MADISHF
6:05 AMCalm3.5 BKN031
BKN041
OVC080
-RA BR % 29.80.01
KSMQ 011005Z AUTO 00000KT 3SM -RA BR BKN031 BKN041 OVC080 21/21 A2979 RMK P0000 T02100210 MADISHF
6:07 AMCalm3 BKN031
BKN043
OVC110
-RA BR696969 100% 29.80.01
KSMQ 011007Z AUTO 00000KT 3SM -RA BR BKN031 BKN043 OVC110 21/21 A2980 RMK AO2 P0001 T02060206
6:10 AMCalm4 BKN032
BKN065
OVC110
-RA BR % 29.80.01
KSMQ 011010Z AUTO 00000KT 4SM -RA BR BKN032 BKN065 OVC110 21/21 A2979 RMK P0000 T02100210 MADISHF
6:15 AMCalm4 SCT032
BKN065
OVC110
-RA BR % 29.810.01
KSMQ 011015Z AUTO 00000KT 4SM -RA BR SCT032 BKN065 OVC110 21/21 A2980 RMK P0000 T02100210 MADISHF
6:20 AMCalm4 SCT032
OVC110
-RA BR % 29.80.01
KSMQ 011020Z AUTO 00000KT 4SM -RA BR SCT032 OVC110 21/20 A2979 RMK P0000 T02100200 MADISHF
6:25 AMCalm4 FEW032
OVC110
-RA BR % 29.80.02
KSMQ 011025Z AUTO 00000KT 4SM -RA BR FEW032 OVC110 21/20 A2979 RMK P0001 T02100200 MADISHF
6:30 AMCalm4 FEW028
FEW034
OVC110
-RA BR % 29.810.02
KSMQ 011030Z AUTO 00000KT 4SM -RA BR FEW028 FEW034 OVC110 21/20 A2980 RMK P0001 T02100200 MADISHF
6:35 AMCalm5 FEW034
OVC120
-RA BR % 29.810.02
KSMQ 011035Z AUTO 00000KT 5SM -RA BR FEW034 OVC120 21/20 A2980 RMK P0001 T02100200 MADISHF
6:40 AMCalm6 BKN120
-RA BR % 29.810.03
KSMQ 011040Z AUTO 00000KT 6SM -RA BR BKN120 21/20 A2980 RMK P0002 T02100200 MADISHF
6:45 AMCalm5 BKN120
-RA BR % 29.810.03
KSMQ 011045Z AUTO 00000KT 5SM -RA BR BKN120 21/20 A2980 RMK P0002 T02100200 MADISHF
6:50 AMCalm4 BKN120
-RA BR % 29.810.03
KSMQ 011050Z AUTO 00000KT 4SM -RA BR BKN120 21/20 A2980 RMK P0002 T02100200 MADISHF
6:53 AMNNE 34 FEW070
BKN110
-RA BR696869 96% 29.81009.10.04
KSMQ 011053Z AUTO 02003KT 4SM -RA BR FEW070 BKN110 21/20 A2980 RMK AO2 SLP091 P0004 T02060200
6:55 AMNNE 24 FEW065
FEW095
BKN120
-RA BR % 29.8
KSMQ 011055Z AUTO 03002KT 4SM -RA BR FEW065 FEW095 BKN120 21/20 A2979 RMK T02100200 MADISHF
7:00 AMNNE 23 FEW065
SCT095
BKN120
-RA BR % 29.80.01
KSMQ 011100Z AUTO 03002KT 3SM -RA BR FEW065 SCT095 BKN120 20/19 A2979 RMK P0000 T02000190 MADISHF
7:05 AMN 23 FEW090
BKN110
-RA BR % 29.80.01
KSMQ 011105Z AUTO 01002KT 3SM -RA BR FEW090 BKN110 20/19 A2979 RMK P0000 T02000190 VRB03KT MADISHF
7:10 AMCalm3.5 FEW090
BKN110
-RA BR % 29.80.02
KSMQ 011110Z AUTO /////KT 3SM -RA BR FEW090 BKN110 20/19 A2979 RMK P0001 T02000190 MADISHF
7:15 AMNNE 54 FEW090
BKN110
-RA BR % 29.790.02
KSMQ 011115Z AUTO 02004KT 4SM -RA BR FEW090 BKN110 20/19 A2979 RMK P0001 T02000190 MADISHF
7:20 AMN 24 FEW090
BKN110
-RA BR % 29.790.03
KSMQ 011120Z AUTO 36002KT 4SM -RA BR FEW090 BKN110 20/19 A2979 RMK P0002 T02000190 MADISHF
7:25 AMCalm4 BKN110
-RA BR % 29.790.03
KSMQ 011125Z AUTO /////KT 4SM -RA BR BKN110 20/19 A2979 RMK P0002 T02000190 MADISHF
7:30 AMENE 24 BKN110
-RA BR % 29.790.03
KSMQ 011130Z AUTO 06002KT 4SM -RA BR BKN110 20/19 A2979 RMK P0002 T02000190 VRB03KT MADISHF
7:35 AMCalm5 OVC110
-RA BR % 29.80.03
KSMQ 011135Z AUTO 00000KT 5SM -RA BR OVC110 20/19 A2979 RMK P0002 T02000190 MADISHF
7:40 AMCalm6 OVC110
-RA BR % 29.80.03
KSMQ 011140Z AUTO 00000KT 6SM -RA BR OVC110 20/19 A2979 RMK P0002 T02000190 MADISHF
7:45 AMCalm4 OVC110
-RA BR % 29.810.04
KSMQ 011145Z AUTO 00000KT 4SM -RA BR OVC110 19/19 A2980 RMK P0003 T01900190 MADISHF
7:50 AMCalm3 OVC110
-RA BR % 29.80.04
KSMQ 011150Z AUTO 00000KT 3SM -RA BR OVC110 19/19 A2979 RMK P0003 T01900190 MADISHF
7:53 AMCalm2.5 OVC110
-RA BR676767 71 67 100% 29.810090.040.27
KSMQ 011153Z AUTO 00000KT 2 1/2SM -RA BR OVC110 19/19 A2980 RMK AO2 SLP090 P0004 60027 70027 T01940194 10217 20194 50003
7:55 AMCalm2.5 OVC110
-RA BR % 29.790.01
KSMQ 011155Z AUTO 00000KT 2 1/2SM -RA BR OVC110 19/19 A2979 RMK P0000 T01900190 MADISHF
8:00 AMNE 23 OVC110
-RA BR % 29.790.01
KSMQ 011200Z AUTO 04002KT 3SM -RA BR OVC110 20/19 A2979 RMK P0000 T02000190 MADISHF
8:02 AMVRB 54 OVC110
-RA BR686668 93% 29.790.01
KSMQ 011202Z AUTO VRB04KT 4SM -RA BR OVC110 20/19 A2979 RMK AO2 P0001 T02000189
8:05 AMCalm4 FEW090
OVC110
-RA BR % 29.80.01
KSMQ 011205Z AUTO /////KT 4SM -RA BR FEW090 OVC110 20/19 A2979 RMK P0000 T02000190 MADISHF
8:10 AMCalm3.5 FEW075
SCT090
OVC110
-RA BR % 29.80.02
KSMQ 011210Z AUTO /////KT 3SM -RA BR FEW075 SCT090 OVC110 20/19 A2979 RMK P0001 T02000190 MADISHF
8:15 AMCalm4 FEW075
BKN095
OVC110
-RA BR % 29.80.02
KSMQ 011215Z AUTO /////KT 4SM -RA BR FEW075 BKN095 OVC110 20/19 A2979 RMK P0001 T02000190 MADISHF
8:20 AMENE 25 FEW075
BKN100
OVC120
-RA BR % 29.80.03
KSMQ 011220Z AUTO 07002KT 5SM -RA BR FEW075 BKN100 OVC120 20/19 A2979 RMK P0002 T02000190 MADISHF
8:25 AMNE 25 SCT075
BKN095
OVC110
-RA BR % 29.790.03
KSMQ 011225Z AUTO 05002KT 5SM -RA BR SCT075 BKN095 OVC110 20/19 A2979 RMK P0002 T02000190 MADISHF
8:30 AMCalm4 FEW065
SCT075
OVC095
-RA BR % 29.780.03
KSMQ 011230Z AUTO /////KT 4SM -RA BR FEW065 SCT075 OVC095 20/19 A2978 RMK P0002 T02000190 MADISHF
8:35 AMNE 54 FEW065
BKN100
OVC120
-RA BR % 29.780.04
KSMQ 011235Z AUTO 05004KT 4SM -RA BR FEW065 BKN100 OVC120 20/19 A2978 RMK P0003 T02000190 MADISHF
8:40 AMCalm4 FEW080
BKN100
OVC120
-RA BR % 29.780.04
KSMQ 011240Z AUTO 00000KT 4SM -RA BR FEW080 BKN100 OVC120 20/19 A2978 RMK P0003 T02000190 MADISHF
8:45 AMCalm4 SCT075
OVC110
-RA BR % 29.790.04
KSMQ 011245Z AUTO /////KT 4SM -RA BR SCT075 OVC110 20/19 A2979 RMK P0003 T02000190 MADISHF
8:50 AMN 24 FEW070
BKN100
OVC120
-RA BR % 29.790.05
KSMQ 011250Z AUTO 35002KT 4SM -RA BR FEW070 BKN100 OVC120 21/19 A2979 RMK P0005 T02100190 MADISHF
8:53 AMVRB 35 FEW075
SCT090
OVC110
-RA BR696769 93% 29.791008.80.05
KSMQ 011253Z AUTO VRB03KT 5SM -RA BR FEW075 SCT090 OVC110 21/19 A2979 RMK AO2 SLP088 P0005 T02060194
8:55 AMN 55 FEW075
BKN090
OVC110
-RA BR % 29.79
KSMQ 011255Z AUTO 01004KT 5SM -RA BR FEW075 BKN090 OVC110 21/19 A2979 RMK T02100190 MADISHF
9:00 AMN 55 FEW075
BKN100
OVC120
-RA BR % 29.79
KSMQ 011300Z AUTO 01004KT 5SM -RA BR FEW075 BKN100 OVC120 21/19 A2979 RMK T02100190 MADISHF
9:05 AMN 56 SCT085
OVC110
-RA BR % 29.78
KSMQ 011305Z AUTO 36004KT 6SM -RA BR SCT085 OVC110 21/19 A2978 RMK T02100190 MADISHF
9:10 AMN 26 SCT085
OVC110
-RA BR % 29.79
KSMQ 011310Z AUTO 36002KT 6SM -RA BR SCT085 OVC110 21/19 A2979 RMK T02100190 MADISHF
9:15 AMN 25 FEW055
BKN085
OVC110
-RA BR % 29.79
KSMQ 011315Z AUTO 35002KT 5SM -RA BR FEW055 BKN085 OVC110 21/19 A2979 RMK T02100190 MADISHF
9:20 AMNNE 25 FEW050
BKN080
OVC110
-RA BR % 29.79
KSMQ 011320Z AUTO 02002KT 5SM -RA BR FEW050 BKN080 OVC110 21/19 A2979 RMK T02100190 MADISHF
9:25 AMNNE 56 FEW029
BKN075
OVC110
-RA BR % 29.78
KSMQ 011325Z AUTO 02004KT 6SM -RA BR FEW029 BKN075 OVC110 21/19 A2978 RMK T02100190 MADISHF
9:30 AMNNE 27 BKN075
BKN110
% 29.79
KSMQ 011330Z AUTO 03002KT 7SM BKN075 BKN110 21/19 A2979 RMK T02100190 MADISHF
9:35 AMCalm7 BKN075
BKN110
% 29.79
KSMQ 011335Z AUTO 00000KT 7SM BKN075 BKN110 21/20 A2979 RMK T02100200 MADISHF
9:40 AMCalm6 FEW047
BKN070
BKN110
BR % 29.8
KSMQ 011340Z AUTO /////KT 6SM BR FEW047 BKN070 BKN110 21/19 A2979 RMK T02100190 MADISHF
9:45 AMCalm6 FEW026
BKN070
OVC110
BR % 29.81
KSMQ 011345Z AUTO /////KT 6SM BR FEW026 BKN070 OVC110 21/19 A2980 RMK T02100190 MADISHF
9:50 AMNNW 65 SCT028
BKN045
BKN070
BR % 29.8
KSMQ 011350Z AUTO 33005KT 5SM BR SCT028 BKN045 BKN070 21/19 A2979 RMK T02100190 MADISHF
9:53 AMCalm5 SCT028
BKN045
BKN070
BR696769 93% 29.81009T
KSMQ 011353Z AUTO 5SM BR SCT028 BKN045 BKN070 21/19 A2980 RMK AO2 RAE29 SLP090 P0000 T02060194
9:55 AMCalm5 SCT028
BKN045
BKN070
BR % 29.8
KSMQ 011355Z AUTO /////KT 5SM BR SCT028 BKN045 BKN070 21/20 A2979 RMK T02100200 MADISHF
10:00 AMNNE 55 SCT029
BKN041
OVC065
BR % 29.79
KSMQ 011400Z AUTO 02004KT 5SM BR SCT029 BKN041 OVC065 21/20 A2979 RMK T02100200 MADISHF
10:05 AMNE 56 SCT029
BKN044
OVC070
BR % 29.79
KSMQ 011405Z AUTO 05004KT 6SM BR SCT029 BKN044 OVC070 21/20 A2979 RMK T02100200 VRB04KT MADISHF
10:10 AMENE 26 SCT029
BKN042
OVC065
-RA BR % 29.78
KSMQ 011410Z AUTO 06002KT 6SM -RA BR SCT029 BKN042 OVC065 21/20 A2978 RMK T02100200 VRB03KT MADISHF
10:15 AMNE 26 BKN029
BKN050
OVC060
-RA BR % 29.79
KSMQ 011415Z AUTO 04002KT 6SM -RA BR BKN029 BKN050 OVC060 21/20 A2979 RMK T02100200 MADISHF
10:20 AMENE 27 FEW023
BKN060
OVC070
-RA % 29.78
KSMQ 011420Z AUTO 06002KT 7SM -RA FEW023 BKN060 OVC070 21/20 A2978 RMK T02100200 VRB03KT MADISHF
10:25 AMNE 27 FEW029
BKN060
BKN070
% 29.78
KSMQ 011425Z AUTO 05002KT 7SM FEW029 BKN060 BKN070 21/20 A2978 RMK T02100200 VRB03KT MADISHF
10:30 AMENE 67 FEW027
BKN055
BKN070
% 29.78
KSMQ 011430Z AUTO 06005KT 7SM FEW027 BKN055 BKN070 21/19 A2978 RMK T02100190 MADISHF
10:35 AMENE 28 FEW030
BKN050
BKN060
-RA % 29.77
KSMQ 011435Z AUTO 06002KT 8SM -RA FEW030 BKN050 BKN060 21/19 A2977 RMK T02100190 VRB03KT MADISHF
10:40 AMNE 68 FEW030
BKN050
BKN065
-RA % 29.78
KSMQ 011440Z AUTO 05005KT 8SM -RA FEW030 BKN050 BKN065 21/19 A2978 RMK T02100190 VRB06KT MADISHF
10:45 AMENE 58 BKN050
BKN060
-RA % 29.78
KSMQ 011445Z AUTO 07004KT 8SM -RA BKN050 BKN060 21/19 A2978 RMK T02100190 VRB04KT MADISHF
10:50 AMNNE 68 BKN050
BKN060
BKN110
-RA % 29.78
KSMQ 011450Z AUTO 03005KT 8SM -RA BKN050 BKN060 BKN110 21/19 A2978 RMK T02100190 MADISHF
10:53 AMVRB 68 BKN050
BKN060
BKN110
-RA706770 90% 29.781008.2T0.05
KSMQ 011453Z AUTO VRB05KT 8SM -RA BKN050 BKN060 BKN110 21/19 A2978 RMK AO2 RAB09 SLP082 P0000 60005 T02110194 58008
10:55 AMENE 58 BKN050
BKN060
OVC110
-RA % 29.77
KSMQ 011455Z AUTO 07004KT 8SM -RA BKN050 BKN060 OVC110 21/19 A2977 RMK T02100190 VRB04KT MADISHF
11:00 AMENE 68 BKN048
OVC060
% 29.77
KSMQ 011500Z AUTO 07005KT 8SM BKN048 OVC060 21/19 A2977 RMK T02100190 MADISHF
11:05 AMNE 68 BKN048
OVC060
% 29.77
KSMQ 011505Z AUTO 05005KT 8SM BKN048 OVC060 21/19 A2977 RMK T02100190 VRB05KT MADISHF
11:10 AMCalm8 BKN048
OVC110
% 29.77
KSMQ 011510Z AUTO 00000KT 8SM BKN048 OVC110 21/20 A2977 RMK T02100200 MADISHF
11:15 AMCalm8 BKN045
OVC055
% 29.76
KSMQ 011515Z AUTO 00000KT 8SM BKN045 OVC055 21/19 A2976 RMK T02100190 MADISHF
11:20 AMNE 28 OVC045
% 29.77
KSMQ 011520Z AUTO 04002KT 8SM OVC045 21/19 A2977 RMK T02100190 VRB03KT MADISHF
11:25 AMN 58 OVC045
% 29.77
KSMQ 011525Z AUTO 01004KT 8SM OVC045 21/19 A2977 RMK T02100190 MADISHF
11:30 AMNE 68 OVC043
% 29.77
KSMQ 011530Z AUTO 04005KT 8SM OVC043 21/19 A2977 RMK T02100190 VRB05KT MADISHF
11:35 AMNNE 88 OVC043
% 29.77
KSMQ 011535Z AUTO 02007KT 8SM OVC043 21/19 A2977 RMK T02100190 MADISHF
11:40 AMCalm8 FEW015
OVC041
% 29.76
KSMQ 011540Z AUTO /////KT 8SM FEW015 OVC041 21/19 A2976 RMK T02100190 MADISHF
11:45 AMENE 68 FEW015
OVC041
% 29.75
KSMQ 011545Z AUTO 06005KT 8SM FEW015 OVC041 21/19 A2975 RMK T02100190 MADISHF
11:50 AMCalm8 OVC041
-RA % 29.76
KSMQ 011550Z AUTO 00000KT 8SM -RA OVC041 21/19 A2976 RMK T02100190 MADISHF
11:53 AMVRB 37 OVC039
-RA706770 90% 29.761007.6T
KSMQ 011553Z AUTO VRB03KT 7SM -RA OVC039 21/19 A2976 RMK AO2 RAE1456B49 SLP076 P0000 T02110194
11:55 AMENE 57 OVC039
-RA % 29.76
KSMQ 011555Z AUTO 06004KT 7SM -RA OVC039 21/19 A2976 RMK T02100190 MADISHF
12:00 PMENE 58 FEW015
OVC039
-RA % 29.75
KSMQ 011600Z AUTO 07004KT 8SM -RA FEW015 OVC039 21/19 A2975 RMK T02100190 MADISHF
12:05 PMENE 59 FEW015
OVC037
-RA % 29.75
KSMQ 011605Z AUTO 06004KT 9SM -RA FEW015 OVC037 21/19 A2975 RMK T02100190 MADISHF
12:10 PMNE 58 FEW015
OVC037
% 29.75
KSMQ 011610Z AUTO 05004KT 8SM FEW015 OVC037 21/19 A2975 RMK T02100190 MADISHF
12:15 PMNE 88 FEW015
OVC037
% 29.75
KSMQ 011615Z AUTO 05007KT 8SM FEW015 OVC037 21/19 A2975 RMK T02100190 MADISHF
12:20 PMENE 68 FEW014
OVC036
% 29.75
KSMQ 011620Z AUTO 07005KT 8SM FEW014 OVC036 21/19 A2975 RMK T02100190 VRB05KT MADISHF
12:25 PMNE 88 FEW014
OVC036
% 29.75
KSMQ 011625Z AUTO 05007KT 8SM FEW014 OVC036 21/19 A2975 RMK T02100190 MADISHF
12:30 PMENE 67 FEW014
OVC036
% 29.75
KSMQ 011630Z AUTO 06005KT 7SM FEW014 OVC036 21/19 A2975 RMK T02100190 MADISHF
12:35 PMENE 67 FEW014
BKN036
OVC045
% 29.75
KSMQ 011635Z AUTO 06005KT 7SM FEW014 BKN036 OVC045 22/20 A2975 RMK T02200200 MADISHF
12:40 PMENE 57 SCT013
OVC036
% 29.75
KSMQ 011640Z AUTO 06004KT 7SM SCT013 OVC036 21/19 A2975 RMK T02100190 VRB04KT MADISHF
12:45 PMNE 67 SCT013
OVC036
% 29.74
KSMQ 011645Z AUTO 05005KT 7SM SCT013 OVC036 21/20 A2973 RMK T02100200 VRB05KT MADISHF
12:50 PMENE 57 SCT013
OVC034
% 29.75
KSMQ 011650Z AUTO 06004KT 7SM SCT013 OVC034 22/20 A2975 RMK T02200200 MADISHF
12:53 PMENE 57 SCT013
OVC034
716871 90% 29.741007.2T
KSMQ 011653Z AUTO 07004KT 7SM SCT013 OVC034 22/20 A2974 RMK AO2 RAE06 SLP072 P0000 T02170200
12:55 PMENE 67 SCT013
OVC034
% 29.74
KSMQ 011655Z AUTO 06005KT 7SM SCT013 OVC034 22/20 A2973 RMK T02200200 VRB05KT MADISHF
1:00 PME 67 SCT013
OVC034
% 29.74
KSMQ 011700Z AUTO 08005KT 7SM SCT013 OVC034 22/20 A2973 RMK T02200200 VRB05KT MADISHF
1:05 PMNE 68 BKN013
OVC034
% 29.74
KSMQ 011705Z AUTO 04005KT 8SM BKN013 OVC034 22/20 A2973 RMK T02200200 MADISHF
1:10 PMNE 58 BKN013
OVC034
% 29.74
KSMQ 011710Z AUTO 04004KT 8SM BKN013 OVC034 22/20 A2973 RMK T02200200 MADISHF
1:11 PMNE 68 BKN013
OVC034
716871 90% 29.740
KSMQ 011711Z AUTO 04005KT 8SM BKN013 OVC034 22/20 A2974 RMK AO2 T02170200
1:15 PMNE 88 BKN013
OVC034
% 29.73
KSMQ 011715Z AUTO 05007KT 8SM BKN013 OVC034 22/20 A2972 RMK T02200200 WND 01V08 MADISHF
1:20 PMNE 68 BKN013
OVC034
% 29.74
KSMQ 011720Z AUTO 05005KT 8SM BKN013 OVC034 22/20 A2973 RMK T02200200 MADISHF
1:25 PMNNE 58 BKN013
OVC035
% 29.74
KSMQ 011725Z AUTO 02004KT 8SM BKN013 OVC035 22/20 A2973 RMK T02200200 VRB04KT MADISHF
1:30 PMNE 68 BKN013
OVC035
% 29.74
KSMQ 011730Z AUTO 05005KT 8SM BKN013 OVC035 22/20 A2973 RMK T02200200 MADISHF
1:35 PMNE 68 BKN013
OVC037
% 29.74
KSMQ 011735Z AUTO 04005KT 8SM BKN013 OVC037 22/20 A2973 RMK T02200200 MADISHF
1:40 PMENE 58 BKN013
OVC037
% 29.73
KSMQ 011740Z AUTO 06004KT 8SM BKN013 OVC037 22/20 A2972 RMK T02200200 MADISHF
1:45 PMENE 58 SCT013
SCT025
OVC035
% 29.73
KSMQ 011745Z AUTO 07004KT 8SM SCT013 SCT025 OVC035 22/20 A2972 RMK T02200200 VRB04KT MADISHF
1:50 PMENE 68 SCT014
BKN037
OVC045
% 29.73
KSMQ 011750Z AUTO 06005KT 8SM SCT014 BKN037 OVC045 22/20 A2972 RMK T02200200 MADISHF
1:53 PMVRB 68 SCT014
BKN037
OVC045
726872 72 69 87% 29.731006.800.05
KSMQ 011753Z AUTO VRB05KT 8SM SCT014 BKN037 OVC045 22/20 A2973 RMK AO2 SLP068 60005 T02220200 10222 20206 56014
1:55 PMNE 68 SCT014
BKN035
OVC045
% 29.73
KSMQ 011755Z AUTO 04005KT 8SM SCT014 BKN035 OVC045 22/20 A2972 RMK T02200200 VRB05KT MADISHF
2:00 PMENE 68 SCT014
BKN024
OVC035
% 29.73
KSMQ 011800Z AUTO 07005KT 8SM SCT014 BKN024 OVC035 22/20 A2972 RMK T02200200 MADISHF
2:05 PMENE 68 SCT014
BKN024
OVC035
72 % 29.73
KSMQ 011805Z AUTO 06005KT 8SM SCT014 BKN024 OVC035 22/19 A2972 RMK T02200190 MADISHF
2:05 PMENE 68 SCT014
BKN024
OVC035
726772 84% 29.730
KSMQ 011805Z AUTO 06005KT 8SM SCT014 BKN024 OVC035 22/19 A2973 RMK AO2 T02220194
2:10 PMENE 69 SCT014
BKN024
OVC035
% 29.73
KSMQ 011810Z AUTO 06005KT 9SM SCT014 BKN024 OVC035 22/19 A2972 RMK T02200190 MADISHF
2:15 PMENE 89 FEW015
BKN024
OVC035
% 29.73
KSMQ 011815Z AUTO 07007KT 9SM FEW015 BKN024 OVC035 22/19 A2972 RMK T02200190 WND 02V09 MADISHF
2:20 PMNE 88 SCT015
OVC024
% 29.72
KSMQ 011820Z AUTO 05007KT 8SM SCT015 OVC024 22/19 A2971 RMK T02200190 WND 01V08 MADISHF
2:25 PMNE 58 SCT015
OVC024
% 29.72
KSMQ 011825Z AUTO 04004KT 8SM SCT015 OVC024 22/19 A2971 RMK T02200190 VRB04KT MADISHF
2:30 PMNE 58 SCT015
OVC023
% 29.72
KSMQ 011830Z AUTO 04004KT 8SM SCT015 OVC023 22/19 A2971 RMK T02200190 VRB04KT MADISHF
2:35 PMENE 28 BKN016
OVC023
% 29.71
KSMQ 011835Z AUTO 06002KT 8SM BKN016 OVC023 22/19 A2970 RMK T02200190 MADISHF
2:40 PMCalm8 BKN016
OVC023
% 29.71
KSMQ 011840Z AUTO /////KT 8SM BKN016 OVC023 22/19 A2970 RMK T02200190 MADISHF
2:45 PMNNE 98 BKN015
OVC023
% 29.71
KSMQ 011845Z AUTO 02008KT 8SM BKN015 OVC023 22/19 A2970 RMK T02200190 MADISHF
2:50 PMENE 28 OVC015
% 29.7
KSMQ 011850Z AUTO 07002KT 8SM OVC015 22/19 A2970 RMK T02200190 VRB03KT MADISHF
2:53 PMNNE 78 OVC015
716771 87% 29.71005.60
KSMQ 011853Z AUTO 03006KT 8SM OVC015 22/19 A2970 RMK AO2 SLP056 T02170194
2:55 PMNNE 68 OVC015
% 29.69
KSMQ 011855Z AUTO 03005KT 8SM OVC015 22/19 A2969 RMK T02200190 VRB06KT MADISHF
3:00 PMNE 88 BKN015
OVC022
% 29.69
KSMQ 011900Z AUTO 04007KT 8SM BKN015 OVC022 22/19 A2969 RMK T02200190 MADISHF
3:05 PMNE 98 BKN015
OVC021
% 29.68
KSMQ 011905Z AUTO 04008KT 8SM BKN015 OVC021 22/19 A2968 RMK T02200190 WND 30V09 MADISHF
3:10 PMNE 10G 168 BKN015
OVC021
% 29.68
KSMQ 011910Z AUTO 04009G14KT 8SM BKN015 OVC021 22/19 A2968 RMK T02200190 WND 01V08 MADISHF
3:15 PMNE 138 SCT015
OVC021
% 29.68
KSMQ 011915Z AUTO 05011KT 8SM SCT015 OVC021 22/19 A2968 RMK T02200190 WND 02V08 MADISHF
3:20 PMENE 98 BKN018
BKN023
OVC035
% 29.67
KSMQ 011920Z AUTO 06008KT 8SM BKN018 BKN023 OVC035 22/19 A2967 RMK T02200190 WND 04V10 MADISHF
3:25 PMENE 68 FEW015
BKN021
OVC035
% 29.67
KSMQ 011925Z AUTO 06005KT 8SM FEW015 BKN021 OVC035 22/19 A2967 RMK T02200190 VRB05G18KT MADISHF
3:30 PMENE 108 FEW015
SCT021
BKN029
% 29.67
KSMQ 011930Z AUTO 06009KT 8SM FEW015 SCT021 BKN029 22/19 A2967 RMK T02200190 MADISHF
3:35 PMENE 98 FEW013
SCT021
BKN031
% 29.67
KSMQ 011935Z AUTO 07008KT 8SM FEW013 SCT021 BKN031 22/19 A2967 RMK T02200190 MADISHF
3:40 PMENE 68 FEW013
SCT023
BKN031
% 29.67
KSMQ 011940Z AUTO 06005KT 8SM FEW013 SCT023 BKN031 22/19 A2967 RMK T02200190 VRB05G14KT MADISHF
3:41 PMENE 7G 168 FEW013
BKN031
BKN038
726772 84% 29.670
KSMQ 011941Z AUTO 07006G14KT 8SM FEW013 BKN031 BKN038 22/19 A2967 RMK AO2 T02220194
3:45 PMNE 98 FEW015
BKN031
BKN038
% 29.68
KSMQ 011945Z AUTO 05008KT 8SM FEW015 BKN031 BKN038 22/19 A2968 RMK T02200190 MADISHF
3:50 PMNE 88 FEW015
BKN031
BKN038
% 29.68
KSMQ 011950Z AUTO 05007KT 8SM FEW015 BKN031 BKN038 22/19 A2968 RMK T02200190 MADISHF
3:53 PMENE 8G 218 FEW013
SCT023
BKN030
716771 87% 29.681004.80
KSMQ 011953Z AUTO 06007G18KT 030V110 8SM FEW013 SCT023 BKN030 22/19 A2968 RMK AO2 SLP048 T02170194
3:55 PMNE 13G 218 FEW013
SCT023
BKN032
% 29.67
KSMQ 011955Z AUTO 04011G18KT 8SM FEW013 SCT023 BKN032 22/19 A2967 RMK T02200190 MADISHF
4:00 PMNE 13G 218 FEW015
SCT023
BKN030
% 29.67
KSMQ 012000Z AUTO 05011G18KT 8SM FEW015 SCT023 BKN030 22/19 A2967 RMK T02200190 MADISHF
4:05 PMNE 107 FEW015
BKN023
BKN032
% 29.66
KSMQ 012005Z AUTO 05009KT 7SM FEW015 BKN023 BKN032 22/19 A2965 RMK T02200190 MADISHF
4:10 PMNE 107 SCT015
BKN023
BKN034
% 29.65
KSMQ 012010Z AUTO 05009KT 7SM SCT015 BKN023 BKN034 22/19 A2964 RMK T02200190 MADISHF
4:11 PMNE 8G 187 SCT015
BKN027
BKN100
716771 87% 29.660
KSMQ 012011Z AUTO 05007G16KT 7SM SCT015 BKN027 BKN100 22/19 A2966 RMK AO2 CIG 021V043 T02170194
4:15 PMNE 13G 207 SCT015
BKN024
BKN035
% 29.65
KSMQ 012015Z AUTO 04011G17KT 7SM SCT015 BKN024 BKN035 22/19 A2964 RMK T02200190 MADISHF
4:20 PMENE 10G 167 BKN014
BKN024
BKN110
-RA % 29.65
KSMQ 012020Z AUTO 06009G14KT 7SM -RA BKN014 BKN024 BKN110 22/19 A2964 RMK T02200190 WND 04V10 MADISHF
4:25 PMENE 137 BKN014
BKN024
OVC110
-RA % 29.65
KSMQ 012025Z AUTO 06011KT 7SM -RA BKN014 BKN024 OVC110 22/19 A2964 RMK T02200190 LTG DSNT SW! MADISHF
4:26 PMENE 10G 227 BKN014
BKN024
OVC110
-RA716771 87% 29.65T
KSMQ 012026Z AUTO 06009G19KT 7SM -RA BKN014 BKN024 OVC110 22/19 A2965 RMK AO2 LTG DSNT SW RAB18 P0000 T02170194
4:30 PMENE 158 BKN014
BKN110
-RA % 29.65
KSMQ 012030Z AUTO 06013KT 8SM -RA BKN014 BKN110 22/19 A2964 RMK T02200190 LTG DSNT SW! MADISHF
4:35 PMNE 136 BKN014
BKN070
OVC110
-RA BR % 29.640.01
KSMQ 012035Z AUTO 05011KT 6SM -RA BR BKN014 BKN070 OVC110 21/19 A2963 RMK P0000 T02100190 WND 03V09 MADISHF
4:40 PMNE 134 BKN014
BKN060
OVC070
-RA BR % 29.630.01
KSMQ 012040Z AUTO 05011KT 4SM -RA BR BKN014 BKN060 OVC070 21/19 A2962 RMK P0000 T02100190 LTG DSNT SW! MADISHF
4:45 PMENE 133 BKN014
BKN055
OVC070
-RA BR % 29.640.02
KSMQ 012045Z AUTO 06011KT 3SM -RA BR BKN014 BKN055 OVC070 21/19 A2963 RMK P0001 T02100190 LTG DSNT SW! MADISHF
4:50 PMENE 12G 213 BKN014
BKN055
OVC070
RA BR % 29.630.03
KSMQ 012050Z AUTO 06010G18KT 3SM RA BR BKN014 BKN055 OVC070 21/19 A2962 RMK P0002 T02100190 LTG DSNT SW! MADISHF
4:53 PMENE 12G 252.5 BKN014
BKN055
OVC095
RA BR696869 96% 29.631003.20.040.04
KSMQ 012053Z AUTO 06010G22KT 2 1/2SM RA BR BKN014 BKN055 OVC095 21/20 A2963 RMK AO2 LTG DSNT SW RAB18 SLP032 P0004 60004 T02060200 58036
4:55 PMENE 10G 222 BKN014
BKN055
OVC095
RA BR % 29.630.01
KSMQ 012055Z AUTO 06009G19KT 2SM RA BR BKN014 BKN055 OVC095 21/20 A2962 RMK P0000 T02100200 LTG DSNT SW! MADISHF
5:00 PMENE 13G 231.75 BKN016
BKN050
OVC095
RA BR696869 96% 29.630.02
KSMQ 012100Z AUTO 06011G20KT 1 3/4SM RA BR BKN016 BKN050 OVC095 21/20 A2963 RMK AO2 P0002 T02060200
5:00 PMENE 13G 251.75 BKN016
BKN050
OVC095
RA BR69 % 29.630.02
KSMQ 012100Z AUTO 06011G22KT 2SM RA BR BKN016 BKN050 OVC095 21/20 A2962 RMK P0001 T02100200 MADISHF
5:05 PMENE 151.75 SCT013
BKN050
OVC070
RA BR % 29.620.04
KSMQ 012105Z AUTO 06013KT 2SM RA BR SCT013 BKN050 OVC070 21/20 A2962 RMK P0003 T02100200 MADISHF
5:10 PMENE 13G 291.75 SCT013
BKN038
OVC080
RA BR696769 93% 29.620.06
KSMQ 012110Z AUTO 07011G25KT 030V090 1 3/4SM RA BR SCT013 BKN038 OVC080 21/19 A2962 RMK AO2 P0006 T02060194
5:10 PMENE 131.75 SCT013
BKN038
OVC080
RA BR69 % 29.620.06
KSMQ 012110Z AUTO 06011KT 2SM RA BR SCT013 BKN038 OVC080 21/19 A2962 RMK P0005 T02100190 WND 03V09 MADISHF
5:15 PMENE 15G 221.75 SCT013
BKN038
OVC065
RA BR % 29.60.08
KSMQ 012115Z AUTO 06013G19KT 2SM RA BR SCT013 BKN038 OVC065 21/19 A2960 RMK P0007 T02100190 MADISHF
5:20 PMENE 15G 281.5 SCT014
BKN048
OVC070
+RA BR % 29.60.1
KSMQ 012120Z AUTO 07013G24KT 1 1/2SM +RA BR SCT014 BKN048 OVC070 21/19 A2960 RMK P0010 T02100190 LTG DSNT W! MADISHF
5:25 PMENE 13G 211.25 FEW012
BKN046
OVC060
+RA BR % 29.610.14
KSMQ 012125Z AUTO 07011G18KT 1 1/2SM +RA BR FEW012 BKN046 OVC060 21/19 A2961 RMK P0014 T02100190 LTG DSNT W! MADISHF
5:30 PMENE 131.25 FEW012
SCT037
OVC046
+RA BR % 29.60.17
KSMQ 012130Z AUTO 07011KT 1 1/2SM +RA BR FEW012 SCT037 OVC046 21/19 A2960 RMK P0017 T02100190 LTG DSNT W! MADISHF
5:35 PMENE 131.25 FEW012
SCT040
OVC048
+RA BR % 29.60.2
KSMQ 012135Z AUTO 06011KT 1 1/2SM +RA BR FEW012 SCT040 OVC048 21/19 A2960 RMK P0020 T02100190 MADISHF
5:40 PMENE 16G 250.75 FEW012
OVC044
+RA BR % 29.60.28
KSMQ 012140Z AUTO 06014G22KT 1SM +RA BR FEW012 OVC044 20/19 A2960 RMK P0028 T02000190 MADISHF
5:45 PMENE 12G 180.75 SCT030
OVC042
+RA BR % 29.570.32
KSMQ 012145Z AUTO 06010G16KT 1SM +RA BR SCT030 OVC042 20/19 A2956 RMK P0031 T02000190 WND 36V09 MADISHF
5:46 PMENE 10G 260.75 FEW011
SCT030
OVC042
+RA BR686768 96% 29.570.33
KSMQ 012146Z AUTO 06009G23KT 360V090 3/4SM +RA BR FEW011 SCT030 OVC042 20/19 A2957 RMK AO2 PK WND 07026/2121 PRESFR P0033 T02000194
5:55 PMCalm % 29.59
KSMQ 012155Z AUTO /////KT A2959 RMK T0200 MADISHF
6:00 PMENE 161.75 +RA BR % 29.59
KSMQ 012200Z AUTO 06014KT 2SM +RA BR 20/19 A2959 RMK T02000190 MADISHF
6:05 PMENE 16G 281.5 +RA BR686668 93% 29.580
KSMQ 012205Z AUTO 07014G24KT 1 1/2SM +RA BR 20/19 A2958 RMK AO2 LTG DSNT SW RAB2159 T02000189 PNO $
6:05 PMENE 16G 261.5 +RA BR68 % 29.58
KSMQ 012205Z AUTO 07014G23KT 1 1/2SM +RA BR 20/19 A2957 RMK T02000190 LTG DSNT SW! MADISHF
6:10 PMENE 101.75 +RA BR % 29.58
KSMQ 012210Z AUTO 06009KT 2SM +RA BR 20/19 A2957 RMK T02000190 WND 01V10 MADISHF
6:13 PMENE 13G 282 VCTS +RA BR686668 93% 29.590
KSMQ 012213Z AUTO 07011G24KT 2SM VCTS +RA BR 20/19 A2959 RMK AO2 LTG DSNT SW AND W RAB2159 T02000189 PNO $
6:15 PMENE 10G 181.75 +RA BR % 29.59
KSMQ 012215Z AUTO 07009G16KT 2SM +RA BR 20/19 A2959 RMK T02000190 LTG DSNT SW AND W! MADISHF
6:19 PMNE 13G 241.25 +TSRA BR676767 100% 29.580
KSMQ 012219Z AUTO 05011G21KT 1 1/4SM +TSRA BR 19/19 A2958 RMK AO2 LTG DSNT SW AND W RAB2159 TSB19 T01940194 PNO $
6:20 PMENE 12G 171.25 +RA BR % 29.57
KSMQ 012220Z AUTO 06010G15KT 1 1/2SM +RA BR 19/19 A2956 RMK T01900190 LTG DSNT SW AND W! MADISHF
6:25 PMM0.75 BKN032
OVC042
+RA BR % 29.56
KSMQ 012225Z AUTO ///15G23KT 1SM +RA BR BKN032 OVC042 19/19 A2955 RMK T01900190 LTG DSNT SW-NW! MADISHF
6:30 PMENE 131 BKN030
OVC037
+RA BR % 29.56
KSMQ 012230Z AUTO 06011KT 1SM +RA BR BKN030 OVC037 19/19 A2955 RMK T01900190 LTG DSNT SW AND NW! MADISHF
6:35 PMNE 91.5 FEW011
BKN030
OVC035
+RA BR % 29.55
KSMQ 012235Z AUTO 05008KT 1 1/2SM +RA BR FEW011 BKN030 OVC035 19/19 A2954 RMK T01900190 WND 02V09 MADISHF
6:40 PMNE 171 FEW011
BKN026
OVC032
+RA BR % 29.56
KSMQ 012240Z AUTO 05015KT 1SM +RA BR FEW011 BKN026 OVC032 19/19 A2955 RMK T01900190 LTG DSNT SW! MADISHF
6:42 PMENE 13G 300.75 FEW011
BKN024
OVC032
+TSRA BR676667 97% 29.560
KSMQ 012242Z AUTO 07011G26KT 3/4SM +TSRA BR FEW011 BKN024 OVC032 19/19 A2956 RMK AO2 PK WND 03026/2239 LTG DSNT SW RAB2159 TSB19E34B35 T01940189 PNO $
6:45 PMNE 160.75 FEW011
BKN024
OVC038
+RA BR % 29.56
KSMQ 012245Z AUTO 04014KT 1SM +RA BR FEW011 BKN024 OVC038 19/19 A2955 RMK T01900190 LTG DSNT SW! MADISHF
6:50 PMNE 20G 280.75 BKN024
BKN029
OVC038
+RA BR % 29.56
KSMQ 012250Z AUTO 05017G24KT 1SM +RA BR BKN024 BKN029 OVC038 19/19 A2955 RMK T01900190 LTG DSNT S AND SW! MADISHF
6:53 PMNNE 17G 300.75 BKN024
BKN029
OVC034
+RA BR676667 97% 29.551000.50
KSMQ 012253Z AUTO 03015G26KT 3/4SM +RA BR BKN024 BKN029 OVC034 19/19 A2955 RMK AO2 PK WND 04026/2250 LTG DSNT S AND SW RAB2159 TSB19E34B35E50 SLP005 T01940189 PNO $
6:55 PMNE 130.75 BKN024
BKN029
OVC038
+RA BR % 29.560.04
KSMQ 012255Z AUTO 05011KT 1SM +RA BR BKN024 BKN029 OVC038 19/19 A2955 RMK P0003 T01900190 LTG DSNT S AND SW! MADISHF
7:00 PMNE 13G 220.75 BKN024
OVC032
+RA BR % 29.560.15
KSMQ 012300Z AUTO 05011G19KT 1SM +RA BR BKN024 OVC032 19/19 A2955 RMK P0015 T01900190 LTG DSNT S AND SW! MADISHF
7:05 PMNE 13G 250.5 VV 020
+RA FG % 29.540.38
KSMQ 012305Z AUTO 04011G22KT 1/2SM +RA FG VV019 19/19 A2954 RMK P0037 T01900190 WND 03V09 MADISHF
7:07 PMNE 15G 260.5 VV 020
+TSRA FG666666 100% 29.540.41
KSMQ 012307Z AUTO 05013G23KT 030V090 1/2SM +TSRA FG VV020 19/19 A2954 RMK AO2 LTG DSNT S TSB07 P0041 T01890189 $
7:10 PMNE 20G 320.5 VV 018
+RA FG % 29.540.51
KSMQ 012310Z AUTO 04017G28KT 1/2SM +RA FG VV018 19/19 A2954 RMK P0050 T01900190 LTG DSNT S! MADISHF
7:15 PMNE 180.5 VV 018
+RA FG % 29.540.67
KSMQ 012315Z AUTO 05016KT 1/2SM +RA FG VV018 19/19 A2954 RMK P0067 T01900190 LTG DSNT S AND SW! MADISHF
7:20 PMNNE 90.5 VV 017
+RA FG % 29.550.86
KSMQ 012320Z AUTO 03008KT 1/2SM +RA FG VV016 19/19 A2954 RMK P0086 T01900190 LTG DSNT S AND SW! MADISHF
7:25 PMNE 130.5 VV 015
+RA FG % 29.551.05
KSMQ 012325Z AUTO 05011KT 1/2SM +RA FG VV015 19/19 A2954 RMK P0104 T01900190 LTG DSNT E-SW! MADISHF
7:30 PMM0.5 VV 013
+RA FG % 29.531.35
KSMQ 012330Z AUTO ///17G28KT 1/2SM +RA FG VV013 19/19 A2953 RMK P0135 T01900190 LTG DSNT E-SW! MADISHF
7:32 PMNE 26G 380.25 VV 013
+TSRA FG666666 100% 29.511.56
KSMQ 012332Z AUTO 04023G33KT 1/4SM +TSRA FG VV013 19/19 A2951 RMK AO2 PK WND 05033/2331 LTG DSNT E-SW TSB07 PRESFR P0156 T01890189 $
7:35 PMM0.25 VV 012
+RA FG % 29.531.87
KSMQ 012335Z AUTO ///17G26KT 1/4SM +RA FG VV012 19/18 A2953 RMK P0187 T01900180 LTG DSNT E-SW! MADISHF
7:40 PMM0.24 VV 011
+RA FG % 29.532.16
KSMQ 012340Z AUTO ///17G23KT 1/4SM +RA FG VV011 19/18 A2953 RMK P0216 T01900180 LTG DSNT ALQDS! MADISHF
7:44 PMNNE 16G 340.25 VV 011
VCTS +RA FG666566 96% 29.542.32
KSMQ 012344Z AUTO 02014G30KT 1/4SM VCTS +RA FG VV011 19/18 A2954 RMK AO2 PK WND 05033/2331 LTG DSNT ALQDS TSB07E38 P0232 T01890183 $
7:45 PMNNE 13G 180.25 VV 011
+RA FG % 29.542.38
KSMQ 012345Z AUTO 03011G16KT 1/4SM +RA FG VV011 19/18 A2954 RMK P0238 T01900180 LTG DSNT ALQDS! MADISHF
7:50 PMM0.5 VV 010
+RA FG % 29.562.66
KSMQ 012350Z AUTO ///14KT 1/2SM +RA FG VV009 19/19 A2955 RMK P0266 T01900190 LTG DSNT ALQDS! MADISHF
7:53 PME 9G 230.5 VV 009
VCTS +RA FG666666 72 66 100% 29.551000.72.83
KSMQ 012353Z AUTO 08008G20KT 1/2SM VCTS +RA FG VV009 19/19 A2955 RMK AO2 PK WND 05033/2331 LTG DSNT E-SW TSB07E38 SLP007 P0283 6//// T01890189 10222 20189 $
7:55 PMENE 130.5 VV 009
+RA FG % 29.550.1
KSMQ 012355Z AUTO 06011KT 1/2SM +RA FG VV009 19/19 A2954 RMK P0010 T01900190 LTG DSNT E-SW! MADISHF
8:00 PMNE 120.5 VV 010
+RA FG % 29.550.28
KSMQ 020000Z AUTO 05010KT 1/2SM +RA FG VV009 19/18 A2954 RMK P0028 T01900180 LTG DSNT ALQDS! MADISHF
8:04 PMNNE 14G 300.5 VV 011
VCTS +RA FG666566 96% 29.550.39
KSMQ 020004Z AUTO 03012G26KT 350V060 1/2SM VCTS +RA FG VV011 19/18 A2955 RMK AO2 PK WND 04026/2358 LTG DSNT ALQDS P0039 T01890183 $
8:05 PMNNE 120.5 FEW008
OVC012
+RA FG % 29.540.41
KSMQ 020005Z AUTO 02010KT 1/2SM +RA FG FEW008 OVC012 19/18 A2954 RMK P0040 T01900180 WND 35V06 MADISHF
8:07 PMNNE 16G 300.5 FEW008
OVC012
+RA FG666566 96% 29.540.46
KSMQ 020007Z AUTO 03014G26KT 1/2SM +RA FG FEW008 OVC012 19/18 A2954 RMK AO2 PK WND 04026/2358 LTG DSNT ALQDS P0046 T01890183 $
8:10 PMN 100.5 VV 013
+RA FG % 29.550.53
KSMQ 020010Z AUTO 01009KT 1/2SM +RA FG VV013 19/18 A2954 RMK P0052 T01900180 LTG DSNT ALQDS! MADISHF
8:15 PMN 12G 180.75 BKN013
OVC031
+RA BR % 29.550.62
KSMQ 020015Z AUTO 36010G16KT 1SM +RA BR BKN013 OVC031 19/18 A2954 RMK P0062 T01900180 LTG DSNT ALQDS! MADISHF
8:20 PMN 13G 221 FEW009
OVC013
VCTS +RA BR656565 100% 29.550.7
KSMQ 020020Z AUTO 36011G19KT 1SM VCTS +RA BR FEW009 OVC013 18/18 A2955 RMK AO2 PK WND 04026/2358 LTG DSNT NE-SE P0070 T01830183 $
8:20 PMN 13G 181 FEW009
OVC013
+RA BR65 % 29.550.7
KSMQ 020020Z AUTO 36011G16KT 1SM +RA BR FEW009 OVC013 18/18 A2954 RMK P0069 T01800180 LTG DSNT NE-SE! MADISHF
8:25 PMNE 15G 261 FEW009
OVC015
+RA BR % 29.550.8
KSMQ 020025Z AUTO 04013G23KT 1SM +RA BR FEW009 OVC015 18/18 A2954 RMK P0080 T01800180 LTG DSNT NE-SE! MADISHF
8:26 PMNE 16G 280.75 FEW009
OVC015
VCTS +RA BR656565 100% 29.550.85
KSMQ 020026Z AUTO 04014G24KT 3/4SM VCTS +RA BR FEW009 OVC015 18/18 A2955 RMK AO2 PK WND 04026/2358 LTG DSNT NE-SE P0085 T01830183 $
8:30 PMNNE 130.5 VV 014
+RA FG % 29.541.04
KSMQ 020030Z AUTO 02011KT 1/2SM +RA FG VV014 18/18 A2954 RMK P0103 T01800180 LTG DSNT NE-S! MADISHF
8:35 PMNNE 130.5 VV 013
+RA FG65 % 29.541.07
KSMQ 020035Z AUTO 03011KT 1/2SM +RA FG VV013 18/18 A2954 RMK P0107 T01800180 LTG DSNT NE-S! MADISHF
8:35 PMNNE 14G 240.5 VV 013
VCTS +RA FG656565 100% 29.541.07
KSMQ 020035Z AUTO 03012G21KT 1/2SM VCTS +RA FG VV013 18/18 A2954 RMK AO2 PK WND 04026/2358 LTG DSNT NE-S P0107 T01830183 $
8:40 PMM1.25 FEW011
BKN017
OVC031
RA BR65 % 29.521.12
KSMQ 020040Z AUTO ///15G23KT 1 1/2SM RA BR FEW011 BKN017 OVC031 18/18 A2952 RMK P0112 T01800180 LTG DSNT NE-S! MADISHF
8:40 PMNNE 16G 281.25 FEW011
BKN017
OVC031
VCTS RA BR656565 100% 29.521.12
KSMQ 020040Z AUTO 03014G24KT 1 1/4SM VCTS RA BR FEW011 BKN017 OVC031 18/18 A2952 RMK AO2 PK WND 04026/2358 LTG DSNT NE-S PRESFR P0112 T01830183 $
8:45 PMNNE 131.25 FEW011
BKN021
OVC034
+RA BR % 29.541.16
KSMQ 020045Z AUTO 02011KT 1 1/2SM +RA BR FEW011 BKN021 OVC034 18/18 A2954 RMK P0115 T01800180 LTG DSNT NE-S! MADISHF
8:50 PMN 13G 181 FEW011
OVC019
+RA BR % 29.531.26
KSMQ 020050Z AUTO 01011G16KT 1SM +RA BR FEW011 OVC019 18/18 A2953 RMK P0125 T01800180 LTG DSNT NE-S! MADISHF
8:53 PMNW 13G 230.75 FEW011
OVC017
+RA BR656565 100% 29.53999.91.32
KSMQ 020053Z AUTO 32011G20KT 290V360 3/4SM +RA BR FEW011 OVC017 18/18 A2953 RMK AO2 PK WND 04026/2358 LTG DSNT NE-SE SLP999 P0132 T01830183 $
8:55 PMM0.75 FEW011
OVC017
+RA BR % 29.530.05
KSMQ 020055Z AUTO ///11KT 1SM +RA BR FEW011 OVC017 18/18 A2953 RMK P0005 T01800180 LTG DSNT NE-SE! MADISHF
9:00 PMNNW 90.75 FEW009
OVC017
+RA BR % 29.540.14
KSMQ 020100Z AUTO 33008KT 1SM +RA BR FEW009 OVC017 18/18 A2954 RMK P0014 T01800180 WND 30V02 MADISHF
9:05 PMN 80.75 FEW009
OVC016
+RA BR656565 100% 29.540.19
KSMQ 020105Z AUTO 36007KT 3/4SM +RA BR FEW009 OVC016 18/18 A2954 RMK AO2 LTG DSNT NE-SE P0019 T01830183 $
9:05 PMN 80.75 FEW009
OVC016
+RA BR65 % 29.540.19
KSMQ 020105Z AUTO 36007KT 1SM +RA BR FEW009 OVC016 18/18 A2954 RMK P0018 T01800180 LTG DSNT NE-SE! MADISHF
9:10 PMN 12G 211 FEW009
OVC014
+RA BR656565 100% 29.530.26
KSMQ 020110Z AUTO 01010G18KT 1SM +RA BR FEW009 OVC014 18/18 A2953 RMK AO2 LTG DSNT NE-SE P0026 T01830183 $
9:10 PMN 121 FEW009
OVC014
+RA BR65 % 29.530.26
KSMQ 020110Z AUTO 01010KT 1SM +RA BR FEW009 OVC014 18/18 A2953 RMK P0025 T01800180 LTG DSNT NE-SE! MADISHF
9:15 PMN 12G 201.25 FEW009
OVC014
+RA BR % 29.530.29
KSMQ 020115Z AUTO 01010G17KT 1 1/2SM +RA BR FEW009 OVC014 18/18 A2953 RMK P0028 T01800180 LTG DSNT NE-SE! MADISHF
9:19 PMN 16G 242 FEW009
SCT016
OVC020
RA BR656565 100% 29.530.3
KSMQ 020119Z AUTO 35014G21KT 2SM RA BR FEW009 SCT016 OVC020 18/18 A2953 RMK AO2 LTG DSNT SE AND S P0030 T01830183 $
9:20 PMN 182.5 FEW009
SCT016
OVC020
RA BR % 29.530.3
KSMQ 020120Z AUTO 35016KT 2 1/2SM RA BR FEW009 SCT016 OVC020 18/18 A2953 RMK P0030 T01800180 LTG DSNT SE AND S! MADISHF
9:25 PMN 152.5 SCT013
SCT018
OVC022
+RA BR % 29.530.33
KSMQ 020125Z AUTO 36013KT 2 1/2SM +RA BR SCT013 SCT018 OVC022 18/18 A2953 RMK P0033 T01800180 LTG DSNT E-S! MADISHF
9:30 PMN 132 SCT016
OVC027
+RA BR % 29.540.36
KSMQ 020130Z AUTO 36011KT 2SM +RA BR SCT016 OVC027 18/18 A2954 RMK P0036 T01800180 LTG DSNT E-S! MADISHF
9:35 PMN 101.75 SCT016
OVC029
+RA BR % 29.540.4
KSMQ 020135Z AUTO 36009KT 2SM +RA BR SCT016 OVC029 18/18 A2954 RMK P0040 T01800180 LTG DSNT E-SW! MADISHF
9:39 PMN 12G 181.75 SCT017
SCT023
OVC027
+RA BR656465 97% 29.540.42
KSMQ 020139Z AUTO 36010G16KT 1 3/4SM +RA BR SCT017 SCT023 OVC027 18/18 A2954 RMK AO2 LTG DSNT SE AND SW P0042 T01830178 $
9:40 PMN 10G 161.75 SCT017
BKN023
OVC030
+RA BR % 29.550.42
KSMQ 020140Z AUTO 36009G14KT 2SM +RA BR SCT017 BKN023 OVC030 18/18 A2954 RMK P0041 T01800180 LTG DSNT SE AND SW! MADISHF
9:45 PMN 102 SCT017
BKN023
OVC030
+RA BR % 29.540.45
KSMQ 020145Z AUTO 36009KT 2SM +RA BR SCT017 BKN023 OVC030 18/18 A2954 RMK P0044 T01800180 LTG DSNT SE AND SW! MADISHF
9:49 PMN 13G 232 BKN019
OVC028
+RA BR646464 100% 29.540.47
KSMQ 020149Z AUTO 01011G20KT 2SM +RA BR BKN019 OVC028 18/18 A2954 RMK AO2 LTG DSNT E AND SE P0047 $
9:50 PMM2 FEW015
BKN019
OVC028
+RA BR % 29.540.48
KSMQ 020150Z AUTO ///11KT 2SM +RA BR FEW015 BKN019 OVC028 18/18 A2954 RMK P0047 T01800180 LTG DSNT E AND SE! MADISHF
9:53 PMN 14G 252 BKN019
OVC028
+RA BR656465 97% 29.541000.30.49
KSMQ 020153Z AUTO 36012G22KT 2SM +RA BR BKN019 OVC028 18/18 A2954 RMK AO2 LTG DSNT E AND SE SLP003 P0049 T01830178 $
9:55 PMN 15G 242 BKN019
OVC028
+RA BR % 29.540.01
KSMQ 020155Z AUTO 35013G21KT 2SM +RA BR BKN019 OVC028 18/18 A2954 RMK P0000 T01800180 LTG DSNT E AND SE! MADISHF
10:00 PMM2.5 BKN021
OVC028
RA BR % 29.540.02
KSMQ 020200Z AUTO ///13KT 2 1/2SM RA BR BKN021 OVC028 18/18 A2954 RMK P0001 T01800180 LTG DSNT E AND SE! MADISHF
10:05 PMN 132.5 OVC019
RA BR % 29.550.05
KSMQ 020205Z AUTO 35011KT 2 1/2SM RA BR OVC019 18/17 A2954 RMK P0005 T01800170 LTG DSNT E AND SE! MADISHF
10:10 PMN 91.75 OVC019
+RA BR % 29.550.08
KSMQ 020210Z AUTO 35008KT 2SM +RA BR OVC019 18/17 A2954 RMK P0007 T01800170 LTG DSNT SE! MADISHF
10:15 PMN 121.75 OVC020
+RA BR % 29.550.12
KSMQ 020215Z AUTO 35010KT 2SM +RA BR OVC020 18/17 A2954 RMK P0011 T01800170 MADISHF
10:16 PMNNW 14G 211.75 OVC020
+RA BR646364 97% 29.550.13
KSMQ 020216Z AUTO 34012G18KT 1 3/4SM +RA BR OVC020 18/17 A2955 RMK AO2 LTG DSNT S P0013 T01780172 $
10:20 PMN 121.75 OVC020
+RA BR % 29.550.15
KSMQ 020220Z AUTO 36010KT 2SM +RA BR OVC020 18/17 A2954 RMK P0015 T01800170 LTG DSNT S! MADISHF
10:25 PMN 13G 182 BKN016
OVC023
+RA BR % 29.560.17
KSMQ 020225Z AUTO 36011G16KT 2SM +RA BR BKN016 OVC023 18/17 A2955 RMK P0017 T01800170 WND 34V04 MADISHF
10:29 PMN 13G 202.5 SCT016
BKN023
OVC032
+RA BR646364 97% 29.560.19
KSMQ 020229Z AUTO 36011G17KT 2 1/2SM +RA BR SCT016 BKN023 OVC032 18/17 A2956 RMK AO2 LTG DSNT S P0019 T01780172 $
10:30 PMN 132.5 SCT016
BKN023
OVC032
RA BR % 29.560.19
KSMQ 020230Z AUTO 36011KT 2 1/2SM RA BR SCT016 BKN023 OVC032 18/17 A2955 RMK P0018 T01800170 LTG DSNT S! MADISHF
10:35 PMM3 FEW014
BKN019
OVC027
RA BR % 29.560.21
KSMQ 020235Z AUTO ///13KT 3SM RA BR FEW014 BKN019 OVC027 18/17 A2955 RMK P0020 T01800170 MADISHF
10:40 PMN 93 FEW017
SCT022
OVC029
RA BR % 29.570.23
KSMQ 020240Z AUTO 36008KT 3SM RA BR FEW017 SCT022 OVC029 18/17 A2956 RMK P0023 T01800170 MADISHF
10:45 PMN 12G 212 FEW017
SCT022
OVC031
+RA BR % 29.570.27
KSMQ 020245Z AUTO 35010G18KT 2SM +RA BR FEW017 SCT022 OVC031 18/17 A2956 RMK P0027 T01800170 MADISHF
10:48 PMN 14G 231.75 FEW017
BKN031
OVC036
+RA BR646364 94% 29.570.29
KSMQ 020248Z AUTO 36012G20KT 1 3/4SM +RA BR FEW017 BKN031 OVC036 18/17 A2957 RMK AO2 P0029 $
10:50 PMN 101.5 FEW017
BKN031
OVC036
+RA BR % 29.570.31
KSMQ 020250Z AUTO 35009KT 1 1/2SM +RA BR FEW017 BKN031 OVC036 18/17 A2956 RMK P0031 T01800170 MADISHF
10:53 PMN 15G 241.5 FEW017
OVC031
+RA BR646264 94% 29.571001.10.352.16
KSMQ 020253Z AUTO 36013G21KT 1 1/2SM +RA BR FEW017 OVC031 18/17 A2957 RMK AO2 SLP011 P0035 60216 T01780167 53012 $
10:55 PMN 131.5 FEW019
OVC033
+RA BR % 29.570.01
KSMQ 020255Z AUTO 36011KT 1 1/2SM +RA BR FEW019 OVC033 18/17 A2956 RMK P0000 T01800170 MADISHF
11:00 PMN 91.5 FEW019
OVC035
+RA BR % 29.570.06
KSMQ 020300Z AUTO 36008KT 1 1/2SM +RA BR FEW019 OVC035 17/17 A2956 RMK P0005 T01700170 MADISHF
11:05 PMN 13G 211.5 BKN035
OVC043
+RA BR % 29.570.1
KSMQ 020305Z AUTO 36011G18KT 1 1/2SM +RA BR BKN035 OVC043 17/17 A2956 RMK P0010 T01700170 MADISHF
11:10 PMN 161.5 BKN037
OVC045
+RA BR % 29.560.14
KSMQ 020310Z AUTO 01014KT 1 1/2SM +RA BR BKN037 OVC045 18/17 A2955 RMK P0014 T01800170 MADISHF
11:15 PMNNE 161.75 OVC037
+RA BR % 29.550.17
KSMQ 020315Z AUTO 02014KT 2SM +RA BR OVC037 18/17 A2954 RMK P0017 T01800170 MADISHF
11:20 PMN 131.25 BKN035
OVC043
+RA BR % 29.560.25
KSMQ 020320Z AUTO 01011KT 1 1/2SM +RA BR BKN035 OVC043 18/17 A2955 RMK P0025 T01800170 MADISHF
11:25 PMN 121 BKN035
OVC043
+RA BR % 29.570.29
KSMQ 020325Z AUTO 36010KT 1SM +RA BR BKN035 OVC043 18/17 A2956 RMK P0028 T01800170 MADISHF
11:30 PMN 15G 241.75 OVC038
+RA BR % 29.560.31
KSMQ 020330Z AUTO 01013G21KT 2SM +RA BR OVC038 18/17 A2955 RMK P0031 T01800170 MADISHF
11:35 PMN 102 OVC038
+RA BR % 29.560.34
KSMQ 020335Z AUTO 01009KT 2SM +RA BR OVC038 18/17 A2955 RMK P0034 T01800170 MADISHF
11:38 PMN 12G 282 OVC039
+RA BR646264 94% 29.560.35
KSMQ 020338Z AUTO 36010G24KT 2SM +RA BR OVC039 18/17 A2956 RMK AO2 P0035 T01780167 $
11:40 PMN 132 OVC039
+RA BR % 29.560.37
KSMQ 020340Z AUTO 36011KT 2SM +RA BR OVC039 18/17 A2955 RMK P0037 T01800170 MADISHF
11:45 PMN 131.75 OVC039
+RA BR % 29.560.4
KSMQ 020345Z AUTO 36011KT 2SM +RA BR OVC039 18/17 A2955 RMK P0040 T01800170 MADISHF
11:48 PMN 13G 251.75 OVC041
+RA BR646364 94% 29.560.43
KSMQ 020348Z AUTO 01011G22KT 1 3/4SM +RA BR OVC041 18/17 A2956 RMK AO2 P0043 $
11:50 PMN 132 OVC043
+RA BR % 29.560.43
KSMQ 020350Z AUTO 01011KT 2SM +RA BR OVC043 18/17 A2955 RMK P0043 T01800170 WND 33V04 MADISHF
11:53 PMN 13G 232 OVC043
+RA BR646264 94% 29.5610010.45
KSMQ 020353Z AUTO 01011G20KT 2SM +RA BR OVC043 18/17 A2956 RMK AO2 SLP010 P0045 T01780167 $
11:55 PMM2.5 OVC045
+RA BR % 29.56
KSMQ 020355Z AUTO ///13G21KT 2 1/2SM +RA BR OVC045 18/17 A2955 RMK T01800170 MADISHF

The IEM API webservice that provided data to this page. For more details, see documentation.

Data Notes

  • For recent years, this page also optionally shows observations from the MADIS High Frequency METAR dataset. This dataset had a problem with temperatures detailed here.